sensor_id;sensor_type;location;lat;lon;timestamp;pressure;altitude;pressure_sealevel;temperature;humidity
13407;BME280;6774;48.208;10.766;2023-02-04T00:00:24;96558.00;;;5.04;96.53
13407;BME280;6774;48.208;10.766;2023-02-04T00:02:54;96561.22;;;5.17;96.38
13407;BME280;6774;48.208;10.766;2023-02-04T00:05:24;96558.28;;;4.90;96.61
13407;BME280;6774;48.208;10.766;2023-02-04T00:07:51;96552.44;;;4.97;96.93
13407;BME280;6774;48.208;10.766;2023-02-04T00:10:19;96550.56;;;5.09;96.83
13407;BME280;6774;48.208;10.766;2023-02-04T00:12:47;96555.50;;;5.23;95.85
13407;BME280;6774;48.208;10.766;2023-02-04T00:15:15;96556.38;;;4.92;96.96
13407;BME280;6774;48.208;10.766;2023-02-04T00:17:43;96560.66;;;4.93;97.96
13407;BME280;6774;48.208;10.766;2023-02-04T00:20:11;96531.66;;;4.96;97.22
13407;BME280;6774;48.208;10.766;2023-02-04T00:22:40;96545.16;;;4.80;98.25
13407;BME280;6774;48.208;10.766;2023-02-04T00:25:08;96552.16;;;5.00;96.80
13407;BME280;6774;48.208;10.766;2023-02-04T00:27:36;96542.22;;;5.15;96.80
13407;BME280;6774;48.208;10.766;2023-02-04T00:30:05;96564.22;;;4.92;96.87
13407;BME280;6774;48.208;10.766;2023-02-04T00:32:33;96568.81;;;4.78;98.13
13407;BME280;6774;48.208;10.766;2023-02-04T00:35:01;96563.06;;;4.84;97.92
13407;BME280;6774;48.208;10.766;2023-02-04T00:37:30;96579.63;;;5.06;98.13
13407;BME280;6774;48.208;10.766;2023-02-04T00:39:59;96578.31;;;5.00;97.06
13407;BME280;6774;48.208;10.766;2023-02-04T00:42:28;96578.38;;;4.89;97.48
13407;BME280;6774;48.208;10.766;2023-02-04T00:44:57;96572.09;;;5.12;97.12
13407;BME280;6774;48.208;10.766;2023-02-04T00:47:25;96579.81;;;5.14;96.57
13407;BME280;6774;48.208;10.766;2023-02-04T00:49:55;96597.72;;;4.98;97.46
13407;BME280;6774;48.208;10.766;2023-02-04T00:52:22;96593.50;;;4.85;97.88
13407;BME280;6774;48.208;10.766;2023-02-04T00:54:50;96570.75;;;4.97;97.42
13407;BME280;6774;48.208;10.766;2023-02-04T00:57:19;96563.22;;;5.04;97.67
13407;BME280;6774;48.208;10.766;2023-02-04T00:59:47;96560.41;;;4.96;97.98
13407;BME280;6774;48.208;10.766;2023-02-04T01:02:15;96547.84;;;4.90;97.97
13407;BME280;6774;48.208;10.766;2023-02-04T01:04:44;96570.69;;;4.88;98.22
13407;BME280;6774;48.208;10.766;2023-02-04T01:07:12;96579.84;;;5.03;98.06
13407;BME280;6774;48.208;10.766;2023-02-04T01:09:40;96579.59;;;5.27;97.68
13407;BME280;6774;48.208;10.766;2023-02-04T01:12:07;96573.22;;;4.99;97.68
13407;BME280;6774;48.208;10.766;2023-02-04T01:14:36;96572.88;;;5.03;97.73
13407;BME280;6774;48.208;10.766;2023-02-04T01:17:04;96577.97;;;5.05;97.76
13407;BME280;6774;48.208;10.766;2023-02-04T01:19:32;96574.38;;;5.06;98.44
13407;BME280;6774;48.208;10.766;2023-02-04T01:22:00;96592.28;;;4.90;99.19
13407;BME280;6774;48.208;10.766;2023-02-04T01:24:30;96594.84;;;5.01;98.43
13407;BME280;6774;48.208;10.766;2023-02-04T01:27:17;96589.19;;;5.17;98.52
13407;BME280;6774;48.208;10.766;2023-02-04T01:29:46;96596.91;;;5.18;97.69
13407;BME280;6774;48.208;10.766;2023-02-04T01:32:15;96605.22;;;5.23;97.77
13407;BME280;6774;48.208;10.766;2023-02-04T01:34:43;96594.78;;;5.12;97.63
13407;BME280;6774;48.208;10.766;2023-02-04T01:37:11;96601.53;;;4.94;98.61
13407;BME280;6774;48.208;10.766;2023-02-04T01:39:40;96606.19;;;5.22;97.98
13407;BME280;6774;48.208;10.766;2023-02-04T01:42:08;96604.34;;;5.02;97.91
13407;BME280;6774;48.208;10.766;2023-02-04T01:44:36;96614.44;;;5.06;98.77
13407;BME280;6774;48.208;10.766;2023-02-04T01:47:06;96608.31;;;5.38;98.04
13407;BME280;6774;48.208;10.766;2023-02-04T01:49:34;96612.50;;;5.40;97.44
13407;BME280;6774;48.208;10.766;2023-02-04T01:52:02;96623.34;;;5.36;97.12
13407;BME280;6774;48.208;10.766;2023-02-04T01:54:31;96627.31;;;5.30;97.43
13407;BME280;6774;48.208;10.766;2023-02-04T01:56:59;96622.06;;;5.30;97.87
13407;BME280;6774;48.208;10.766;2023-02-04T01:59:27;96630.16;;;5.27;97.26
13407;BME280;6774;48.208;10.766;2023-02-04T02:01:58;96628.44;;;5.37;97.17
13407;BME280;6774;48.208;10.766;2023-02-04T02:04:30;96636.75;;;5.42;97.31
13407;BME280;6774;48.208;10.766;2023-02-04T02:07:03;96628.97;;;5.31;97.14
13407;BME280;6774;48.208;10.766;2023-02-04T02:09:32;96634.69;;;5.25;96.96
13407;BME280;6774;48.208;10.766;2023-02-04T02:12:01;96649.84;;;5.42;96.71
13407;BME280;6774;48.208;10.766;2023-02-04T02:14:30;96643.00;;;5.30;97.04
13407;BME280;6774;48.208;10.766;2023-02-04T02:16:58;96656.66;;;5.55;96.72
13407;BME280;6774;48.208;10.766;2023-02-04T02:19:31;96656.47;;;5.47;96.33
13407;BME280;6774;48.208;10.766;2023-02-04T02:22:03;96664.84;;;5.40;97.36
13407;BME280;6774;48.208;10.766;2023-02-04T02:24:35;96662.91;;;5.42;96.66
13407;BME280;6774;48.208;10.766;2023-02-04T02:27:05;96664.31;;;5.47;96.64
13407;BME280;6774;48.208;10.766;2023-02-04T02:29:33;96659.84;;;5.37;96.31
13407;BME280;6774;48.208;10.766;2023-02-04T02:32:02;96668.41;;;5.39;96.47
13407;BME280;6774;48.208;10.766;2023-02-04T02:34:32;96652.50;;;5.52;96.65
13407;BME280;6774;48.208;10.766;2023-02-04T02:37:02;96660.09;;;5.76;95.43
13407;BME280;6774;48.208;10.766;2023-02-04T02:39:30;96659.97;;;5.57;95.42
13407;BME280;6774;48.208;10.766;2023-02-04T02:42:00;96667.59;;;5.07;96.82
13407;BME280;6774;48.208;10.766;2023-02-04T02:44:28;96678.59;;;4.90;98.70
13407;BME280;6774;48.208;10.766;2023-02-04T02:46:57;96684.00;;;5.09;97.92
13407;BME280;6774;48.208;10.766;2023-02-04T02:49:30;96684.97;;;5.08;98.48
13407;BME280;6774;48.208;10.766;2023-02-04T02:52:00;96693.31;;;5.55;96.79
13407;BME280;6774;48.208;10.766;2023-02-04T02:54:29;96696.31;;;5.50;96.40
13407;BME280;6774;48.208;10.766;2023-02-04T02:57:04;96698.19;;;5.59;96.27
13407;BME280;6774;48.208;10.766;2023-02-04T02:59:32;96702.38;;;5.51;95.95
13407;BME280;6774;48.208;10.766;2023-02-04T03:02:01;96695.53;;;5.38;96.35
13407;BME280;6774;48.208;10.766;2023-02-04T03:04:36;96702.06;;;5.12;96.69
13407;BME280;6774;48.208;10.766;2023-02-04T03:07:08;96706.50;;;5.32;96.11
13407;BME280;6774;48.208;10.766;2023-02-04T03:09:37;96702.06;;;5.12;96.62
13407;BME280;6774;48.208;10.766;2023-02-04T03:12:07;96695.16;;;5.11;96.41
13407;BME280;6774;48.208;10.766;2023-02-04T03:14:35;96705.63;;;4.79;97.04
13407;BME280;6774;48.208;10.766;2023-02-04T03:17:05;96704.63;;;4.91;96.48
13407;BME280;6774;48.208;10.766;2023-02-04T03:19:34;96704.41;;;4.83;96.15
13407;BME280;6774;48.208;10.766;2023-02-04T03:22:04;96698.47;;;4.81;95.95
13407;BME280;6774;48.208;10.766;2023-02-04T03:24:32;96707.38;;;4.90;96.23
13407;BME280;6774;48.208;10.766;2023-02-04T03:27:02;96720.94;;;4.95;95.65
13407;BME280;6774;48.208;10.766;2023-02-04T03:29:31;96726.28;;;4.82;95.63
13407;BME280;6774;48.208;10.766;2023-02-04T03:31:59;96727.84;;;4.73;95.54
13407;BME280;6774;48.208;10.766;2023-02-04T03:34:27;96722.63;;;4.73;95.12
13407;BME280;6774;48.208;10.766;2023-02-04T03:36:55;96722.22;;;4.89;94.80
13407;BME280;6774;48.208;10.766;2023-02-04T03:39:23;96743.03;;;4.91;94.42
13407;BME280;6774;48.208;10.766;2023-02-04T03:41:50;96748.44;;;4.67;94.42
13407;BME280;6774;48.208;10.766;2023-02-04T03:44:18;96751.81;;;5.01;94.31
13407;BME280;6774;48.208;10.766;2023-02-04T03:46:48;96747.31;;;4.92;93.64
13407;BME280;6774;48.208;10.766;2023-02-04T03:49:21;96762.78;;;4.95;93.29
13407;BME280;6774;48.208;10.766;2023-02-04T03:51:48;96765.34;;;5.06;92.42
13407;BME280;6774;48.208;10.766;2023-02-04T03:54:17;96773.47;;;4.92;92.64
13407;BME280;6774;48.208;10.766;2023-02-04T03:56:45;96776.31;;;4.89;92.94
13407;BME280;6774;48.208;10.766;2023-02-04T03:59:12;96775.38;;;4.90;92.73
13407;BME280;6774;48.208;10.766;2023-02-04T04:01:40;96782.13;;;4.92;92.98
13407;BME280;6774;48.208;10.766;2023-02-04T04:04:09;96794.16;;;4.95;92.80
13407;BME280;6774;48.208;10.766;2023-02-04T04:06:37;96785.94;;;4.99;92.68
13407;BME280;6774;48.208;10.766;2023-02-04T04:09:05;96796.16;;;5.02;91.63
13407;BME280;6774;48.208;10.766;2023-02-04T04:11:32;96802.00;;;4.83;91.99
13407;BME280;6774;48.208;10.766;2023-02-04T04:14:01;96800.81;;;4.99;91.67
13407;BME280;6774;48.208;10.766;2023-02-04T04:16:29;96797.00;;;4.92;91.81
13407;BME280;6774;48.208;10.766;2023-02-04T04:18:57;96807.69;;;5.00;91.90
13407;BME280;6774;48.208;10.766;2023-02-04T04:21:27;96807.13;;;4.96;91.62
13407;BME280;6774;48.208;10.766;2023-02-04T04:23:55;96815.56;;;4.89;92.85
13407;BME280;6774;48.208;10.766;2023-02-04T04:26:22;96811.94;;;5.12;92.75
13407;BME280;6774;48.208;10.766;2023-02-04T04:28:50;96813.66;;;4.91;92.36
13407;BME280;6774;48.208;10.766;2023-02-04T04:31:18;96815.41;;;5.01;92.55
13407;BME280;6774;48.208;10.766;2023-02-04T04:33:46;96821.88;;;4.86;92.69
13407;BME280;6774;48.208;10.766;2023-02-04T04:36:13;96817.22;;;4.90;93.20
13407;BME280;6774;48.208;10.766;2023-02-04T04:38:42;96827.91;;;4.98;92.51
13407;BME280;6774;48.208;10.766;2023-02-04T04:41:10;96827.66;;;5.23;92.15
13407;BME280;6774;48.208;10.766;2023-02-04T04:43:38;96829.56;;;4.99;92.33
13407;BME280;6774;48.208;10.766;2023-02-04T04:46:06;96828.03;;;4.96;92.31
13407;BME280;6774;48.208;10.766;2023-02-04T04:48:34;96834.88;;;5.20;91.77
13407;BME280;6774;48.208;10.766;2023-02-04T04:51:02;96851.69;;;5.06;91.93
13407;BME280;6774;48.208;10.766;2023-02-04T04:53:30;96842.41;;;5.02;91.69
13407;BME280;6774;48.208;10.766;2023-02-04T04:55:59;96842.75;;;5.08;91.38
13407;BME280;6774;48.208;10.766;2023-02-04T04:58:27;96842.50;;;5.11;91.07
13407;BME280;6774;48.208;10.766;2023-02-04T05:00:55;96839.81;;;5.13;91.11
13407;BME280;6774;48.208;10.766;2023-02-04T05:03:23;96837.41;;;4.99;90.42
13407;BME280;6774;48.208;10.766;2023-02-04T05:05:51;96845.16;;;5.00;90.44
13407;BME280;6774;48.208;10.766;2023-02-04T05:08:19;96844.78;;;4.94;89.88
13407;BME280;6774;48.208;10.766;2023-02-04T05:10:47;96845.03;;;4.79;89.86
13407;BME280;6774;48.208;10.766;2023-02-04T05:13:16;96849.06;;;4.72;90.19
13407;BME280;6774;48.208;10.766;2023-02-04T05:15:44;96847.78;;;4.67;90.21
13407;BME280;6774;48.208;10.766;2023-02-04T05:18:12;96857.28;;;4.79;90.79
13407;BME280;6774;48.208;10.766;2023-02-04T05:20:40;96856.44;;;4.90;89.04
13407;BME280;6774;48.208;10.766;2023-02-04T05:23:07;96864.28;;;4.90;88.76
13407;BME280;6774;48.208;10.766;2023-02-04T05:25:35;96869.78;;;4.87;88.14
13407;BME280;6774;48.208;10.766;2023-02-04T05:28:04;96878.53;;;4.52;88.85
13407;BME280;6774;48.208;10.766;2023-02-04T05:30:33;96883.69;;;4.18;90.26
13407;BME280;6774;48.208;10.766;2023-02-04T05:33:01;96886.78;;;4.23;90.48
13407;BME280;6774;48.208;10.766;2023-02-04T05:35:29;96887.69;;;4.11;90.28
13407;BME280;6774;48.208;10.766;2023-02-04T05:37:57;96880.28;;;3.94;90.81
13407;BME280;6774;48.208;10.766;2023-02-04T05:40:24;96873.59;;;3.90;90.84
13407;BME280;6774;48.208;10.766;2023-02-04T05:42:52;96882.84;;;3.83;90.91
13407;BME280;6774;48.208;10.766;2023-02-04T05:45:20;96891.41;;;3.85;90.78
13407;BME280;6774;48.208;10.766;2023-02-04T05:47:49;96884.44;;;3.72;90.87
13407;BME280;6774;48.208;10.766;2023-02-04T05:50:17;96891.72;;;3.56;91.32
13407;BME280;6774;48.208;10.766;2023-02-04T05:52:45;96896.22;;;3.54;91.88
13407;BME280;6774;48.208;10.766;2023-02-04T05:55:13;96898.06;;;3.41;91.97
13407;BME280;6774;48.208;10.766;2023-02-04T05:57:41;96893.19;;;3.60;91.81
13407;BME280;6774;48.208;10.766;2023-02-04T06:00:10;96896.16;;;3.43;92.22
13407;BME280;6774;48.208;10.766;2023-02-04T06:02:39;96901.59;;;3.40;91.98
13407;BME280;6774;48.208;10.766;2023-02-04T06:05:08;96903.69;;;3.35;91.31
13407;BME280;6774;48.208;10.766;2023-02-04T06:07:36;96908.31;;;3.31;91.12
13407;BME280;6774;48.208;10.766;2023-02-04T06:10:04;96915.50;;;3.28;91.54
13407;BME280;6774;48.208;10.766;2023-02-04T06:12:31;96922.69;;;3.37;90.86
13407;BME280;6774;48.208;10.766;2023-02-04T06:15:00;96924.63;;;3.22;90.82
13407;BME280;6774;48.208;10.766;2023-02-04T06:17:28;96930.00;;;3.32;91.13
13407;BME280;6774;48.208;10.766;2023-02-04T06:19:56;96925.44;;;3.23;91.34
13407;BME280;6774;48.208;10.766;2023-02-04T06:22:25;96933.88;;;3.26;91.36
13407;BME280;6774;48.208;10.766;2023-02-04T06:24:53;96931.72;;;3.20;90.93
13407;BME280;6774;48.208;10.766;2023-02-04T06:27:20;96939.94;;;3.27;90.65
13407;BME280;6774;48.208;10.766;2023-02-04T06:29:50;96931.97;;;3.41;89.97
13407;BME280;6774;48.208;10.766;2023-02-04T06:32:19;96938.63;;;3.45;89.40
13407;BME280;6774;48.208;10.766;2023-02-04T06:34:47;96937.13;;;3.30;89.19
13407;BME280;6774;48.208;10.766;2023-02-04T06:37:15;96941.88;;;3.36;89.89
13407;BME280;6774;48.208;10.766;2023-02-04T06:39:45;96951.72;;;3.20;89.04
13407;BME280;6774;48.208;10.766;2023-02-04T06:42:13;96955.81;;;3.24;89.92
13407;BME280;6774;48.208;10.766;2023-02-04T06:44:41;96969.88;;;3.34;89.42
13407;BME280;6774;48.208;10.766;2023-02-04T06:47:09;96972.59;;;3.32;89.03
13407;BME280;6774;48.208;10.766;2023-02-04T06:49:37;96981.13;;;3.34;88.98
13407;BME280;6774;48.208;10.766;2023-02-04T06:52:04;96978.63;;;3.33;89.78
13407;BME280;6774;48.208;10.766;2023-02-04T06:54:32;96980.38;;;3.45;88.65
13407;BME280;6774;48.208;10.766;2023-02-04T06:57:02;96978.41;;;3.36;87.92
13407;BME280;6774;48.208;10.766;2023-02-04T06:59:32;96975.84;;;3.10;87.47
13407;BME280;6774;48.208;10.766;2023-02-04T07:02:01;96986.56;;;3.19;87.15
13407;BME280;6774;48.208;10.766;2023-02-04T07:04:29;96990.13;;;3.18;87.55
13407;BME280;6774;48.208;10.766;2023-02-04T07:06:57;97002.66;;;3.12;87.98
13407;BME280;6774;48.208;10.766;2023-02-04T07:09:25;97005.78;;;3.18;88.55
13407;BME280;6774;48.208;10.766;2023-02-04T07:11:53;97007.88;;;3.25;88.37
13407;BME280;6774;48.208;10.766;2023-02-04T07:14:23;97007.84;;;3.38;88.33
13407;BME280;6774;48.208;10.766;2023-02-04T07:16:51;97021.00;;;3.49;88.42
13407;BME280;6774;48.208;10.766;2023-02-04T07:19:19;97029.31;;;3.54;88.97
13407;BME280;6774;48.208;10.766;2023-02-04T07:21:47;97016.34;;;3.65;88.54
13407;BME280;6774;48.208;10.766;2023-02-04T07:24:19;97022.16;;;3.82;87.62
13407;BME280;6774;48.208;10.766;2023-02-04T07:26:47;97027.19;;;3.85;87.05
13407;BME280;6774;48.208;10.766;2023-02-04T07:29:15;97026.13;;;3.75;87.03
13407;BME280;6774;48.208;10.766;2023-02-04T07:31:52;97032.53;;;3.70;88.20
13407;BME280;6774;48.208;10.766;2023-02-04T07:34:21;97039.19;;;3.75;87.78
13407;BME280;6774;48.208;10.766;2023-02-04T07:36:48;97030.00;;;3.82;87.83
13407;BME280;6774;48.208;10.766;2023-02-04T07:39:17;97038.47;;;3.72;87.97
13407;BME280;6774;48.208;10.766;2023-02-04T07:41:44;97039.94;;;3.64;88.44
13407;BME280;6774;48.208;10.766;2023-02-04T07:44:19;97041.31;;;3.69;88.61
13407;BME280;6774;48.208;10.766;2023-02-04T07:46:46;97048.09;;;3.72;87.84
13407;BME280;6774;48.208;10.766;2023-02-04T07:49:16;97046.19;;;3.87;87.79
13407;BME280;6774;48.208;10.766;2023-02-04T07:51:44;97050.47;;;3.88;87.85
13407;BME280;6774;48.208;10.766;2023-02-04T07:54:12;97056.19;;;3.93;87.31
13407;BME280;6774;48.208;10.766;2023-02-04T07:56:39;97048.25;;;4.18;87.28
13407;BME280;6774;48.208;10.766;2023-02-04T07:59:07;97062.78;;;4.22;85.83
13407;BME280;6774;48.208;10.766;2023-02-04T08:01:35;97056.69;;;4.59;86.37
13407;BME280;6774;48.208;10.766;2023-02-04T08:04:03;97055.19;;;4.78;86.10
13407;BME280;6774;48.208;10.766;2023-02-04T08:06:32;97062.78;;;4.70;85.59
13407;BME280;6774;48.208;10.766;2023-02-04T08:09:00;97067.34;;;4.91;84.35
13407;BME280;6774;48.208;10.766;2023-02-04T08:11:28;97072.53;;;4.68;84.85
13407;BME280;6774;48.208;10.766;2023-02-04T08:13:56;97063.81;;;5.03;85.32
13407;BME280;6774;48.208;10.766;2023-02-04T08:16:23;97061.81;;;4.95;84.40
13407;BME280;6774;48.208;10.766;2023-02-04T08:18:51;97072.59;;;4.91;84.29
13407;BME280;6774;48.208;10.766;2023-02-04T08:21:19;97065.03;;;5.10;84.07
13407;BME280;6774;48.208;10.766;2023-02-04T08:23:48;97069.94;;;5.14;84.10
13407;BME280;6774;48.208;10.766;2023-02-04T08:26:16;97076.84;;;5.27;83.79
13407;BME280;6774;48.208;10.766;2023-02-04T08:28:44;97076.59;;;5.30;84.03
13407;BME280;6774;48.208;10.766;2023-02-04T08:31:12;97081.75;;;5.42;83.71
13407;BME280;6774;48.208;10.766;2023-02-04T08:33:40;97077.72;;;5.50;82.99
13407;BME280;6774;48.208;10.766;2023-02-04T08:36:08;97075.81;;;5.52;82.34
13407;BME280;6774;48.208;10.766;2023-02-04T08:38:35;97087.47;;;5.48;83.32
13407;BME280;6774;48.208;10.766;2023-02-04T08:41:05;97083.91;;;5.60;82.80
13407;BME280;6774;48.208;10.766;2023-02-04T08:43:32;97096.31;;;5.58;83.12
13407;BME280;6774;48.208;10.766;2023-02-04T08:46:00;97095.81;;;5.64;83.05
13407;BME280;6774;48.208;10.766;2023-02-04T08:48:28;97096.06;;;5.61;83.28
13407;BME280;6774;48.208;10.766;2023-02-04T08:50:56;97100.13;;;5.98;83.39
13407;BME280;6774;48.208;10.766;2023-02-04T08:53:24;97102.63;;;6.22;83.02
13407;BME280;6774;48.208;10.766;2023-02-04T08:55:53;97093.69;;;6.25;81.13
13407;BME280;6774;48.208;10.766;2023-02-04T08:58:22;97102.69;;;6.43;80.83
13407;BME280;6774;48.208;10.766;2023-02-04T09:00:49;97094.22;;;6.40;80.16
13407;BME280;6774;48.208;10.766;2023-02-04T09:03:17;97098.72;;;6.49;79.71
13407;BME280;6774;48.208;10.766;2023-02-04T09:05:45;97098.28;;;6.44;79.54
13407;BME280;6774;48.208;10.766;2023-02-04T09:08:13;97104.84;;;6.49;80.58
13407;BME280;6774;48.208;10.766;2023-02-04T09:10:41;97096.94;;;6.61;79.71
13407;BME280;6774;48.208;10.766;2023-02-04T09:13:09;97092.91;;;6.45;79.36
13407;BME280;6774;48.208;10.766;2023-02-04T09:15:39;97101.00;;;6.53;79.10
13407;BME280;6774;48.208;10.766;2023-02-04T09:18:06;97099.09;;;6.55;79.35
13407;BME280;6774;48.208;10.766;2023-02-04T09:20:42;97089.72;;;6.31;80.10
13407;BME280;6774;48.208;10.766;2023-02-04T09:23:10;97094.38;;;6.27;80.42
13407;BME280;6774;48.208;10.766;2023-02-04T09:25:39;97094.19;;;6.08;80.28
13407;BME280;6774;48.208;10.766;2023-02-04T09:28:08;97099.41;;;6.08;79.71
13407;BME280;6774;48.208;10.766;2023-02-04T09:30:39;97094.28;;;6.17;78.99
13407;BME280;6774;48.208;10.766;2023-02-04T09:33:08;97105.38;;;5.98;79.45
13407;BME280;6774;48.208;10.766;2023-02-04T09:35:36;97110.38;;;6.13;79.15
13407;BME280;6774;48.208;10.766;2023-02-04T09:38:04;97107.84;;;5.89;80.60
13407;BME280;6774;48.208;10.766;2023-02-04T09:40:35;97106.78;;;6.25;80.83
13407;BME280;6774;48.208;10.766;2023-02-04T09:43:04;97104.63;;;6.30;79.54
13407;BME280;6774;48.208;10.766;2023-02-04T09:45:34;97104.38;;;6.44;80.37
13407;BME280;6774;48.208;10.766;2023-02-04T09:48:04;97112.91;;;6.57;78.04
13407;BME280;6774;48.208;10.766;2023-02-04T09:50:35;97112.91;;;6.57;78.26
13407;BME280;6774;48.208;10.766;2023-02-04T09:53:05;97114.91;;;6.65;78.43
13407;BME280;6774;48.208;10.766;2023-02-04T09:55:37;97115.34;;;7.13;78.43
13407;BME280;6774;48.208;10.766;2023-02-04T09:58:11;97118.84;;;6.71;76.70
13407;BME280;6774;48.208;10.766;2023-02-04T10:00:42;97126.41;;;7.17;77.51
13407;BME280;6774;48.208;10.766;2023-02-04T10:03:14;97131.72;;;7.27;76.96
13407;BME280;6774;48.208;10.766;2023-02-04T10:05:44;97134.34;;;7.06;78.82
13407;BME280;6774;48.208;10.766;2023-02-04T10:08:13;97129.75;;;7.40;77.44
13407;BME280;6774;48.208;10.766;2023-02-04T10:10:43;97129.38;;;7.24;75.07
13407;BME280;6774;48.208;10.766;2023-02-04T10:13:16;97123.91;;;7.36;77.48
13407;BME280;6774;48.208;10.766;2023-02-04T10:15:45;97131.91;;;7.77;76.44
13407;BME280;6774;48.208;10.766;2023-02-04T10:18:18;97132.97;;;7.95;76.42
13407;BME280;6774;48.208;10.766;2023-02-04T10:20:49;97122.03;;;8.30;76.21
13407;BME280;6774;48.208;10.766;2023-02-04T10:23:17;97129.09;;;8.60;73.59
13407;BME280;6774;48.208;10.766;2023-02-04T10:25:44;97125.47;;;8.61;71.94
13407;BME280;6774;48.208;10.766;2023-02-04T10:28:12;97134.66;;;8.96;72.28
13407;BME280;6774;48.208;10.766;2023-02-04T10:30:41;97139.22;;;9.13;71.65
13407;BME280;6774;48.208;10.766;2023-02-04T10:33:14;97126.59;;;9.46;70.01
13407;BME280;6774;48.208;10.766;2023-02-04T10:35:46;97123.59;;;9.87;70.03
13407;BME280;6774;48.208;10.766;2023-02-04T10:38:13;97127.09;;;9.88;69.54
13407;BME280;6774;48.208;10.766;2023-02-04T10:40:41;97125.84;;;9.82;68.71
13407;BME280;6774;48.208;10.766;2023-02-04T10:43:13;97131.69;;;9.76;70.03
13407;BME280;6774;48.208;10.766;2023-02-04T10:45:44;97123.69;;;9.49;70.48
13407;BME280;6774;48.208;10.766;2023-02-04T10:48:14;97126.06;;;9.42;70.78
13407;BME280;6774;48.208;10.766;2023-02-04T10:50:45;97130.75;;;9.58;70.70
13407;BME280;6774;48.208;10.766;2023-02-04T10:53:15;97130.91;;;9.47;70.02
13407;BME280;6774;48.208;10.766;2023-02-04T10:56:01;97132.16;;;9.43;69.68
13407;BME280;6774;48.208;10.766;2023-02-04T10:58:29;97130.63;;;9.50;70.45
13407;BME280;6774;48.208;10.766;2023-02-04T11:00:57;97132.34;;;9.78;69.73
13407;BME280;6774;48.208;10.766;2023-02-04T11:03:27;97127.31;;;9.94;68.13
13407;BME280;6774;48.208;10.766;2023-02-04T11:05:59;97124.19;;;9.81;67.84
13407;BME280;6774;48.208;10.766;2023-02-04T11:08:30;97122.16;;;9.56;68.12
13407;BME280;6774;48.208;10.766;2023-02-04T11:11:02;97124.66;;;9.48;68.96
13407;BME280;6774;48.208;10.766;2023-02-04T11:13:39;97123.00;;;9.47;69.15
13407;BME280;6774;48.208;10.766;2023-02-04T11:16:11;97122.19;;;9.36;69.58
13407;BME280;6774;48.208;10.766;2023-02-04T11:18:45;97115.78;;;9.39;69.55
13407;BME280;6774;48.208;10.766;2023-02-04T11:21:21;97120.50;;;9.45;68.92
13407;BME280;6774;48.208;10.766;2023-02-04T11:23:50;97124.84;;;10.58;69.81
13407;BME280;6774;48.208;10.766;2023-02-04T11:26:35;97123.38;;;10.73;65.46
13407;BME280;6774;48.208;10.766;2023-02-04T11:29:25;97121.66;;;10.36;65.41
13407;BME280;6774;48.208;10.766;2023-02-04T11:31:58;97126.28;;;9.68;65.71
13407;BME280;6774;48.208;10.766;2023-02-04T11:34:43;97129.81;;;9.20;67.39
13407;BME280;6774;48.208;10.766;2023-02-04T11:37:32;97127.44;;;9.36;69.24
13407;BME280;6774;48.208;10.766;2023-02-04T11:40:12;97125.44;;;10.79;67.80
13407;BME280;6774;48.208;10.766;2023-02-04T11:42:47;97110.72;;;12.34;65.91
13407;BME280;6774;48.208;10.766;2023-02-04T11:45:26;97106.50;;;13.64;60.99
13407;BME280;6774;48.208;10.766;2023-02-04T11:47:57;97095.50;;;14.56;58.02
13407;BME280;6774;48.208;10.766;2023-02-04T11:50:27;97097.41;;;14.70;55.43
13407;BME280;6774;48.208;10.766;2023-02-04T11:53:00;97091.78;;;14.65;56.92
13407;BME280;6774;48.208;10.766;2023-02-04T11:55:30;97101.41;;;14.66;55.84
13407;BME280;6774;48.208;10.766;2023-02-04T11:57:58;97104.97;;;14.42;56.28
13407;BME280;6774;48.208;10.766;2023-02-04T12:00:29;97099.34;;;13.81;57.20
13407;BME280;6774;48.208;10.766;2023-02-04T12:02:59;97102.84;;;13.25;57.88
13407;BME280;6774;48.208;10.766;2023-02-04T12:05:41;97102.25;;;12.64;58.87
13407;BME280;6774;48.208;10.766;2023-02-04T12:08:22;97102.56;;;12.19;59.74
13407;BME280;6774;48.208;10.766;2023-02-04T12:10:59;97106.75;;;11.78;60.37
13407;BME280;6774;48.208;10.766;2023-02-04T12:13:29;97115.47;;;11.70;63.62
13407;BME280;6774;48.208;10.766;2023-02-04T12:15:59;97104.75;;;11.72;60.61
13407;BME280;6774;48.208;10.766;2023-02-04T12:18:28;97104.03;;;11.61;61.10
13407;BME280;6774;48.208;10.766;2023-02-04T12:20:56;97099.81;;;11.33;61.58
13407;BME280;6774;48.208;10.766;2023-02-04T12:23:27;97103.19;;;10.99;62.18
13407;BME280;6774;48.208;10.766;2023-02-04T12:25:55;97110.03;;;10.74;62.57
13407;BME280;6774;48.208;10.766;2023-02-04T12:28:24;97119.28;;;10.61;62.88
13407;BME280;6774;48.208;10.766;2023-02-04T12:30:53;97107.72;;;10.44;63.32
13407;BME280;6774;48.208;10.766;2023-02-04T12:33:21;97114.22;;;10.67;65.69
13407;BME280;6774;48.208;10.766;2023-02-04T12:35:49;97108.00;;;10.86;62.55
13407;BME280;6774;48.208;10.766;2023-02-04T12:38:18;97110.25;;;10.81;63.46
13407;BME280;6774;48.208;10.766;2023-02-04T12:40:47;97114.78;;;10.71;63.57
13407;BME280;6774;48.208;10.766;2023-02-04T12:43:15;97122.72;;;10.43;62.85
13407;BME280;6774;48.208;10.766;2023-02-04T12:45:42;97113.72;;;9.99;61.72
13407;BME280;6774;48.208;10.766;2023-02-04T12:48:12;97120.41;;;9.84;62.84
13407;BME280;6774;48.208;10.766;2023-02-04T12:50:40;97117.97;;;10.47;65.70
13407;BME280;6774;48.208;10.766;2023-02-04T12:53:08;97113.13;;;11.05;64.85
13407;BME280;6774;48.208;10.766;2023-02-04T12:55:36;97112.81;;;11.44;63.23
13407;BME280;6774;48.208;10.766;2023-02-04T12:58:05;97125.97;;;11.36;61.87
13407;BME280;6774;48.208;10.766;2023-02-04T13:00:33;97123.63;;;11.15;62.08
13407;BME280;6774;48.208;10.766;2023-02-04T13:03:01;97123.56;;;10.89;61.73
13407;BME280;6774;48.208;10.766;2023-02-04T13:05:29;97130.69;;;10.61;61.02
13407;BME280;6774;48.208;10.766;2023-02-04T13:07:58;97128.63;;;10.18;61.00
13407;BME280;6774;48.208;10.766;2023-02-04T13:10:26;97137.63;;;9.78;62.42
13407;BME280;6774;48.208;10.766;2023-02-04T13:12:53;97133.25;;;9.50;63.35
13407;BME280;6774;48.208;10.766;2023-02-04T13:15:23;97140.78;;;9.25;63.42
13407;BME280;6774;48.208;10.766;2023-02-04T13:17:50;97139.38;;;9.21;64.57
13407;BME280;6774;48.208;10.766;2023-02-04T13:20:18;97139.94;;;9.15;64.76